Medina del Campo, Spain
Current Conditions -  °F | °C
As of 9:00 AM on Thursday 27 Nov 2014 (Local Time) from LEVD Reporting Station
Few Clouds Few Clouds  
Wind Chill: 34°   Ceiling: Unl
Heat Index: 39°   Visibility: 6mi
Dew Point: 37°   Wind: 8mph
Humidity: 93%   Direction: 90°E
Pressure: 29.59"   Gusts: NA
Location:  41.31°N, 4.91°W
Report Text: LEVD 270800Z 09007KT 9999 FEW040 04/03 Q1002
Loading
Personal Weather Stations






























Interactive Weather Map New forecast layout! Learn more

10-Day Weather Forecast

Advertisements
Track Severe Weather on mobile